Time;durP1;ratioP1;P1;durP2;ratioP2;P2;SDS_P1;SDS_P2;PMS_P1;PMS_P2;Temp;Humidity;BMP_temperature;BMP_pressure;BME280_temperature;BME280_humidity;BME280_pressure;Samples;Min_cycle;Max_cycle;Signal;HPM_P1;HPM_P2
2023/03/10 00:01:15;;;;;;;5.47;1.80;;;;;;;;;;5053044;28;20189;-53
2023/03/10 00:03:41;;;;;;;6.25;1.70;;;;;;;;;;5050036;28;20192;-53
2023/03/10 00:06:07;;;;;;;5.82;2.33;;;;;;;;;;5050030;28;20190;-53
2023/03/10 00:08:33;;;;;;;5.57;1.85;;;;;;;;;;5050365;28;20207;-53
2023/03/10 00:10:59;;;;;;;5.75;1.88;;;;;;;;;;5044815;28;20713;-53
2023/03/10 00:13:25;;;;;;;4.30;1.80;;;;;;;;;;5051736;28;20282;-53
2023/03/10 00:15:51;;;;;;;5.90;1.83;;;;;;;;;;5045486;28;20563;-53
2023/03/10 00:18:17;;;;;;;9.10;1.90;;;;;;;;;;5057456;28;20179;-53
2023/03/10 00:20:43;;;;;;;4.38;1.92;;;;;;;;;;5053768;28;20799;-53
2023/03/10 00:23:09;;;;;;;2.60;1.63;;;;;;;;;;5065006;28;20184;-53
2023/03/10 00:25:35;;;;;;;5.10;1.98;;;;;;;;;;5048023;28;20197;-53
2023/03/10 00:28:01;;;;;;;5.22;1.67;;;;;;;;;;5061666;28;20207;-53
2023/03/10 00:30:28;;;;;;;3.85;1.60;;;;;;;;;;5053983;28;20661;-53
2023/03/10 00:32:54;;;;;;;6.32;1.60;;;;;;;;;;5064906;28;20629;-53
2023/03/10 00:35:20;;;;;;;3.78;1.40;;;;;;;;;;5057990;28;20394;-53
2023/03/10 00:37:46;;;;;;;5.32;1.83;;;;;;;;;;5059953;28;20273;-53
2023/03/10 00:40:13;;;;;;;4.65;1.88;;;;;;;;;;5052161;28;20191;-53
2023/03/10 00:42:39;;;;;;;6.40;1.88;;;;;;;;;;5039691;28;20233;-53
2023/03/10 00:45:05;;;;;;;6.30;1.95;;;;;;;;;;5043747;28;20212;-53
2023/03/10 00:47:31;;;;;;;4.43;1.77;;;;;;;;;;5064798;28;20459;-53
2023/03/10 00:49:57;;;;;;;6.28;1.75;;;;;;;;;;5057014;28;20175;-53
2023/03/10 00:52:23;;;;;;;4.40;1.77;;;;;;;;;;5049396;28;20442;-53
2023/03/10 00:54:50;;;;;;;3.97;1.30;;;;;;;;;;5056758;28;20258;-53
2023/03/10 00:57:16;;;;;;;3.40;1.40;;;;;;;;;;5068356;28;20464;-53
2023/03/10 00:59:42;;;;;;;3.40;1.60;;;;;;;;;;5054968;28;20190;-53
2023/03/10 01:02:08;;;;;;;4.00;1.52;;;;;;;;;;5048661;28;20197;-54
2023/03/10 01:04:34;;;;;;;3.03;1.60;;;;;;;;;;5041049;28;20504;-53
2023/03/10 01:06:59;;;;;;;5.63;1.45;;;;;;;;;;5057675;28;20186;-53
2023/03/10 01:09:26;;;;;;;4.30;1.75;;;;;;;;;;5043062;28;20251;-53
2023/03/10 01:11:51;;;;;;;4.25;1.45;;;;;;;;;;5045412;28;20206;-53
2023/03/10 01:14:18;;;;;;;4.18;1.50;;;;;;;;;;5047247;28;20537;-53
2023/03/10 01:16:44;;;;;;;5.40;1.50;;;;;;;;;;5050733;28;20203;-53
2023/03/10 01:19:10;;;;;;;5.28;1.60;;;;;;;;;;5055356;28;20612;-53
2023/03/10 01:21:37;;;;;;;4.28;1.52;;;;;;;;;;5052684;28;20215;-53
2023/03/10 01:24:03;;;;;;;4.13;1.60;;;;;;;;;;5036217;28;20203;-53
2023/03/10 01:26:30;;;;;;;3.95;1.65;;;;;;;;;;5057175;28;20206;-53
2023/03/10 01:28:56;;;;;;;2.72;1.40;;;;;;;;;;5052476;28;20214;-53
2023/03/10 01:31:22;;;;;;;4.07;1.52;;;;;;;;;;5046368;28;20198;-53
2023/03/10 01:33:48;;;;;;;3.72;1.30;;;;;;;;;;5069219;28;20183;-53
2023/03/10 01:36:15;;;;;;;3.45;1.40;;;;;;;;;;5038525;28;20258;-53
2023/03/10 01:38:42;;;;;;;5.57;1.58;;;;;;;;;;5049604;28;20237;-53
2023/03/10 01:41:08;;;;;;;2.15;1.13;;;;;;;;;;5058435;28;20270;-54
2023/03/10 01:43:37;;;;;;;4.70;1.30;;;;;;;;;;5046923;28;20219;-53
2023/03/10 01:46:03;;;;;;;4.55;1.50;;;;;;;;;;5049181;28;20193;-53
2023/03/10 01:48:31;;;;;;;4.20;1.63;;;;;;;;;;5045255;28;20211;-53
2023/03/10 01:50:57;;;;;;;2.88;1.58;;;;;;;;;;5063564;28;20182;-53
2023/03/10 01:53:24;;;;;;;2.35;1.30;;;;;;;;;;5060143;28;20179;-53
2023/03/10 01:55:52;;;;;;;2.80;1.38;;;;;;;;;;5050405;28;20180;-53
2023/03/10 01:58:21;;;;;;;3.05;1.27;;;;;;;;;;5041554;28;20190;-53
2023/03/10 02:00:46;;;;;;;3.38;1.70;;;;;;;;;;5040346;28;20191;-53
2023/03/10 02:03:29;;;;;;;3.85;1.52;;;;;;;;;;5044671;28;20206;-53
2023/03/10 02:05:59;;;;;;;2.67;1.30;;;;;;;;;;5050793;28;20195;-53
2023/03/10 02:08:27;;;;;;;6.90;1.42;;;;;;;;;;5068552;28;20222;-53
2023/03/10 02:10:53;;;;;;;2.92;1.40;;;;;;;;;;5053791;28;20555;-53
2023/03/10 02:13:19;;;;;;;4.53;1.50;;;;;;;;;;5055464;28;20206;-53
2023/03/10 02:15:45;;;;;;;3.60;1.50;;;;;;;;;;5038424;28;20215;-53
2023/03/10 02:18:12;;;;;;;2.85;1.20;;;;;;;;;;5069967;28;20182;-53
2023/03/10 02:20:57;;;;;;;4.50;1.60;;;;;;;;;;5058653;28;20213;-53
2023/03/10 02:23:26;;;;;;;2.03;1.10;;;;;;;;;;5058137;28;20542;-53
2023/03/10 02:25:54;;;;;;;4.78;1.70;;;;;;;;;;5043573;28;20198;-53
2023/03/10 02:28:20;;;;;;;3.55;1.48;;;;;;;;;;5070949;28;20767;-53
2023/03/10 02:30:47;;;;;;;3.08;1.10;;;;;;;;;;5056792;28;20217;-53
2023/03/10 02:33:16;;;;;;;5.05;1.50;;;;;;;;;;5055692;28;20768;-53
2023/03/10 02:35:42;;;;;;;5.78;1.80;;;;;;;;;;5047387;28;20353;-53
2023/03/10 02:38:08;;;;;;;3.28;1.38;;;;;;;;;;5061671;28;20280;-53
2023/03/10 02:40:44;;;;;;;5.63;1.67;;;;;;;;;;5056865;28;20195;-52
2023/03/10 02:43:17;;;;;;;3.92;1.70;;;;;;;;;;5045084;28;20384;-53
2023/03/10 02:45:43;;;;;;;3.55;1.45;;;;;;;;;;5041569;28;20191;-53
2023/03/10 02:48:11;;;;;;;3.28;1.30;;;;;;;;;;5056475;28;20236;-53
2023/03/10 02:50:39;;;;;;;4.15;1.20;;;;;;;;;;5045864;28;20179;-53
2023/03/10 02:53:12;;;;;;;2.22;1.42;;;;;;;;;;5074725;28;20236;-53
2023/03/10 02:55:38;;;;;;;2.78;1.17;;;;;;;;;;5048709;28;20179;-53
2023/03/10 02:58:04;;;;;;;3.47;1.70;;;;;;;;;;5066229;28;20182;-53
2023/03/10 03:00:30;;;;;;;2.63;0.95;;;;;;;;;;5046114;28;20188;-53
2023/03/10 03:02:56;;;;;;;3.45;1.45;;;;;;;;;;5049575;28;20190;-53
2023/03/10 03:05:22;;;;;;;4.00;1.50;;;;;;;;;;5045212;28;20226;-53
2023/03/10 03:07:48;;;;;;;3.47;1.35;;;;;;;;;;5047320;28;20211;-53
2023/03/10 03:10:14;;;;;;;2.78;1.48;;;;;;;;;;5048676;28;20180;-53
2023/03/10 03:12:40;;;;;;;1.40;1.02;;;;;;;;;;5051313;28;20198;-53
2023/03/10 03:15:07;;;;;;;5.00;1.38;;;;;;;;;;5054951;28;20184;-53
2023/03/10 03:17:33;;;;;;;2.20;1.25;;;;;;;;;;5044119;28;20229;-53
2023/03/10 03:19:59;;;;;;;4.32;1.50;;;;;;;;;;5039129;28;20202;-53
2023/03/10 03:22:25;;;;;;;6.00;1.65;;;;;;;;;;5061359;28;20184;-53
2023/03/10 03:24:51;;;;;;;3.83;1.40;;;;;;;;;;5052830;28;20179;-53
2023/03/10 03:27:17;;;;;;;2.25;1.00;;;;;;;;;;5052095;28;20188;-53
2023/03/10 03:29:43;;;;;;;1.48;1.02;;;;;;;;;;5043825;28;20749;-53
2023/03/10 03:32:09;;;;;;;2.05;0.90;;;;;;;;;;5047708;28;20206;-53
2023/03/10 03:34:35;;;;;;;2.42;1.17;;;;;;;;;;5045630;28;20180;-53
2023/03/10 03:37:00;;;;;;;2.58;1.23;;;;;;;;;;5052847;28;20179;-53
2023/03/10 03:39:26;;;;;;;2.92;0.95;;;;;;;;;;5051712;28;20206;-53
2023/03/10 03:41:56;;;;;;;3.55;1.17;;;;;;;;;;5066682;28;20194;-53
2023/03/10 03:44:21;;;;;;;2.35;0.93;;;;;;;;;;5059768;28;20178;-53
2023/03/10 03:46:47;;;;;;;2.72;1.00;;;;;;;;;;5050241;28;20194;-53
2023/03/10 03:49:13;;;;;;;1.67;1.00;;;;;;;;;;5036155;28;20215;-53
2023/03/10 03:51:39;;;;;;;1.73;0.90;;;;;;;;;;5045427;28;20186;-53
2023/03/10 03:54:05;;;;;;;1.95;0.90;;;;;;;;;;5059806;28;20187;-53
2023/03/10 03:56:31;;;;;;;2.45;0.98;;;;;;;;;;5046603;28;20630;-53
2023/03/10 03:58:57;;;;;;;1.50;0.85;;;;;;;;;;5045904;28;20190;-53
2023/03/10 04:01:23;;;;;;;2.63;1.00;;;;;;;;;;5041148;28;20215;-53
2023/03/10 04:03:49;;;;;;;3.28;1.10;;;;;;;;;;5051017;28;20218;-53
2023/03/10 04:06:15;;;;;;;2.22;1.17;;;;;;;;;;5040168;28;20222;-53
2023/03/10 04:08:42;;;;;;;2.42;1.08;;;;;;;;;;5048737;28;20262;-53
2023/03/10 04:11:08;;;;;;;3.58;1.00;;;;;;;;;;5050434;28;20183;-53
2023/03/10 04:13:34;;;;;;;1.45;0.80;;;;;;;;;;5069434;28;20228;-53
2023/03/10 04:15:59;;;;;;;1.77;0.88;;;;;;;;;;5049892;28;20496;-53
2023/03/10 04:18:25;;;;;;;1.88;1.17;;;;;;;;;;5057757;28;20178;-53
2023/03/10 04:20:51;;;;;;;2.10;0.93;;;;;;;;;;5041196;28;20462;-53
2023/03/10 04:23:17;;;;;;;2.47;0.82;;;;;;;;;;5049829;28;20215;-53
2023/03/10 04:25:43;;;;;;;1.48;0.70;;;;;;;;;;5043642;28;20215;-53
2023/03/10 04:28:10;;;;;;;1.60;0.80;;;;;;;;;;5051889;28;20203;-53
2023/03/10 04:30:36;;;;;;;2.92;1.00;;;;;;;;;;5053939;28;20194;-53
2023/03/10 04:33:02;;;;;;;1.38;0.85;;;;;;;;;;5061816;28;20186;-53
2023/03/10 04:35:28;;;;;;;2.80;1.00;;;;;;;;;;5050874;28;20184;-53
2023/03/10 04:37:54;;;;;;;2.03;0.82;;;;;;;;;;5048822;28;20263;-53
2023/03/10 04:40:21;;;;;;;1.20;0.90;;;;;;;;;;5037992;28;20474;-53
2023/03/10 04:42:46;;;;;;;3.00;1.00;;;;;;;;;;5044913;28;20179;-52
2023/03/10 04:45:13;;;;;;;1.95;0.93;;;;;;;;;;5043492;28;20198;-52
2023/03/10 04:47:39;;;;;;;1.23;0.80;;;;;;;;;;5057001;28;20571;-53
2023/03/10 04:50:05;;;;;;;1.77;0.85;;;;;;;;;;5043445;28;20277;-53
2023/03/10 04:52:31;;;;;;;1.88;0.93;;;;;;;;;;5047927;28;20182;-53
2023/03/10 04:54:57;;;;;;;1.33;1.00;;;;;;;;;;5061793;28;20506;-52
2023/03/10 04:57:23;;;;;;;2.40;1.05;;;;;;;;;;5051750;28;20178;-52
2023/03/10 04:59:49;;;;;;;1.17;0.90;;;;;;;;;;5035167;28;20495;-53
2023/03/10 05:02:15;;;;;;;2.58;0.80;;;;;;;;;;5043458;28;20199;-53
2023/03/10 05:04:41;;;;;;;1.52;0.95;;;;;;;;;;5052587;28;20190;-52
2023/03/10 05:07:07;;;;;;;1.65;0.60;;;;;;;;;;5039713;28;20184;-52
2023/03/10 05:09:36;;;;;;;1.58;0.70;;;;;;;;;;5045888;28;20249;-52
2023/03/10 05:12:02;;;;;;;1.30;0.60;;;;;;;;;;5046702;28;20179;-52
2023/03/10 05:14:28;;;;;;;2.28;0.70;;;;;;;;;;5038573;28;20250;-52
2023/03/10 05:16:54;;;;;;;1.42;0.60;;;;;;;;;;5057860;28;20270;-53
2023/03/10 05:19:20;;;;;;;1.25;0.60;;;;;;;;;;5035010;28;20187;-53
2023/03/10 05:21:46;;;;;;;2.40;1.13;;;;;;;;;;5040052;28;20206;-53
2023/03/10 05:24:12;;;;;;;1.67;0.63;;;;;;;;;;5053598;28;20190;-53
2023/03/10 05:26:38;;;;;;;1.08;0.47;;;;;;;;;;5043029;28;20186;-53
2023/03/10 05:29:04;;;;;;;1.25;0.73;;;;;;;;;;5040786;28;20222;-53
2023/03/10 05:31:30;;;;;;;1.35;0.80;;;;;;;;;;5062750;28;20212;-52
2023/03/10 05:33:56;;;;;;;1.23;0.68;;;;;;;;;;5046983;28;20179;-52
2023/03/10 05:36:22;;;;;;;1.55;0.65;;;;;;;;;;5046154;28;20262;-53
2023/03/10 05:38:48;;;;;;;1.63;0.70;;;;;;;;;;5039574;28;20198;-52
2023/03/10 05:41:14;;;;;;;1.13;0.60;;;;;;;;;;5061721;28;20182;-52
2023/03/10 05:43:40;;;;;;;1.08;0.63;;;;;;;;;;5052721;28;20216;-52
2023/03/10 05:46:06;;;;;;;1.02;0.70;;;;;;;;;;5054270;28;20682;-53
2023/03/10 05:48:32;;;;;;;0.85;0.60;;;;;;;;;;5047943;28;20207;-53
2023/03/10 05:50:58;;;;;;;1.52;0.70;;;;;;;;;;5042652;28;20203;-53
2023/03/10 05:53:24;;;;;;;1.67;0.90;;;;;;;;;;5064296;28;20186;-53
2023/03/10 05:55:50;;;;;;;1.52;0.70;;;;;;;;;;5046397;28;20230;-52
2023/03/10 05:58:16;;;;;;;1.20;0.90;;;;;;;;;;5057756;28;20223;-53
2023/03/10 06:00:42;;;;;;;1.52;0.80;;;;;;;;;;5058925;28;20249;-53
2023/03/10 06:03:07;;;;;;;1.52;0.68;;;;;;;;;;5054574;28;20466;-53
2023/03/10 06:05:33;;;;;;;0.70;0.70;;;;;;;;;;5045432;28;20199;-53
2023/03/10 06:07:59;;;;;;;1.20;0.80;;;;;;;;;;5057835;28;20238;-53
2023/03/10 06:10:25;;;;;;;0.93;0.70;;;;;;;;;;5058310;28;20949;-52
2023/03/10 06:12:51;;;;;;;1.30;0.80;;;;;;;;;;5057694;28;20179;-52
2023/03/10 06:15:17;;;;;;;1.63;0.80;;;;;;;;;;5054028;28;20218;-53
2023/03/10 06:17:43;;;;;;;1.15;0.50;;;;;;;;;;5053606;28;20548;-52
2023/03/10 06:20:09;;;;;;;1.83;0.80;;;;;;;;;;5040523;28;20214;-52
2023/03/10 06:22:35;;;;;;;1.33;0.82;;;;;;;;;;5050534;28;20202;-52
2023/03/10 06:25:01;;;;;;;1.10;0.80;;;;;;;;;;5055355;28;20605;-52
2023/03/10 06:27:29;;;;;;;1.52;0.77;;;;;;;;;;5057327;28;20178;-53
2023/03/10 06:29:54;;;;;;;1.30;1.02;;;;;;;;;;5045086;28;20297;-53
2023/03/10 06:32:21;;;;;;;1.50;0.82;;;;;;;;;;5052510;28;20259;-53
2023/03/10 06:34:47;;;;;;;1.55;1.00;;;;;;;;;;5044431;28;20184;-53
2023/03/10 06:37:13;;;;;;;1.13;0.85;;;;;;;;;;5058598;28;20572;-53
2023/03/10 06:39:39;;;;;;;1.63;1.20;;;;;;;;;;5043870;28;20458;-53
2023/03/10 06:42:06;;;;;;;2.00;0.82;;;;;;;;;;5048596;28;20665;-52
2023/03/10 06:44:31;;;;;;;3.03;1.00;;;;;;;;;;5057516;28;20190;-52
2023/03/10 06:46:57;;;;;;;1.90;1.00;;;;;;;;;;5055566;28;20187;-52
2023/03/10 06:49:27;;;;;;;1.77;1.08;;;;;;;;;;5060427;28;20272;-53
2023/03/10 06:51:53;;;;;;;1.25;1.00;;;;;;;;;;5060294;28;20236;-53
2023/03/10 06:54:21;;;;;;;2.03;1.10;;;;;;;;;;5046191;28;20609;-53
2023/03/10 06:56:47;;;;;;;3.47;1.10;;;;;;;;;;5057179;28;20206;-53
2023/03/10 06:59:13;;;;;;;1.98;1.10;;;;;;;;;;5060327;28;20594;-52
2023/03/10 07:01:39;;;;;;;2.05;1.13;;;;;;;;;;5047704;28;20449;-54
2023/03/10 07:04:05;;;;;;;2.80;1.20;;;;;;;;;;5052521;28;20267;-53
2023/03/10 07:06:31;;;;;;;2.30;1.13;;;;;;;;;;5050566;28;20197;-52
2023/03/10 07:08:57;;;;;;;1.63;0.90;;;;;;;;;;5061040;28;20223;-53
2023/03/10 07:11:24;;;;;;;2.75;0.80;;;;;;;;;;5055512;28;20180;-52
2023/03/10 07:13:50;;;;;;;2.53;1.10;;;;;;;;;;5059531;28;20190;-52
2023/03/10 07:16:16;;;;;;;1.92;1.10;;;;;;;;;;5047987;28;20582;-53
2023/03/10 07:18:42;;;;;;;1.55;1.10;;;;;;;;;;5059273;28;20260;-52
2023/03/10 07:21:08;;;;;;;2.10;1.02;;;;;;;;;;5049689;28;20187;-52
2023/03/10 07:23:34;;;;;;;2.17;0.90;;;;;;;;;;5054496;28;20218;-53
2023/03/10 07:26:00;;;;;;;2.25;1.02;;;;;;;;;;5049945;28;20218;-53
2023/03/10 07:28:27;;;;;;;1.48;0.88;;;;;;;;;;5056340;28;20245;-53
2023/03/10 07:30:55;;;;;;;2.22;1.20;;;;;;;;;;5043057;28;20191;-52
2023/03/10 07:33:21;;;;;;;2.05;1.00;;;;;;;;;;5048814;28;20567;-52
2023/03/10 07:35:47;;;;;;;1.15;1.00;;;;;;;;;;5043429;28;20211;-52
2023/03/10 07:38:13;;;;;;;2.63;0.82;;;;;;;;;;5047779;28;20214;-52
2023/03/10 07:40:39;;;;;;;1.65;0.90;;;;;;;;;;5051884;28;20229;-53
2023/03/10 07:43:05;;;;;;;1.33;1.00;;;;;;;;;;5050912;28;20176;-53
2023/03/10 07:45:32;;;;;;;1.30;0.85;;;;;;;;;;5051043;28;20205;-53
2023/03/10 07:47:58;;;;;;;1.25;0.80;;;;;;;;;;5044541;28;20211;-52
2023/03/10 07:50:24;;;;;;;2.40;1.20;;;;;;;;;;5058432;28;20174;-52
2023/03/10 07:52:50;;;;;;;1.05;0.93;;;;;;;;;;5049894;28;20183;-52
2023/03/10 07:55:17;;;;;;;1.92;1.02;;;;;;;;;;5046085;28;20180;-53
2023/03/10 07:57:43;;;;;;;1.50;0.80;;;;;;;;;;5055744;28;20189;-52
2023/03/10 08:00:10;;;;;;;2.17;0.98;;;;;;;;;;5048998;28;20221;-52
2023/03/10 08:02:36;;;;;;;3.50;1.02;;;;;;;;;;5055007;28;20484;-52
2023/03/10 08:05:02;;;;;;;1.23;0.90;;;;;;;;;;5049858;28;20558;-52
2023/03/10 08:07:28;;;;;;;2.72;0.80;;;;;;;;;;5059330;28;20239;-52
2023/03/10 08:09:54;;;;;;;2.58;1.00;;;;;;;;;;5065392;28;20486;-52
2023/03/10 08:12:20;;;;;;;1.65;0.95;;;;;;;;;;5050127;28;20248;-52
2023/03/10 08:14:46;;;;;;;3.22;1.02;;;;;;;;;;5064912;28;20189;-52
2023/03/10 08:17:12;;;;;;;2.50;0.95;;;;;;;;;;5057637;28;20261;-53
2023/03/10 08:19:39;;;;;;;2.33;1.00;;;;;;;;;;5057000;28;20196;-52
2023/03/10 08:22:05;;;;;;;3.10;1.05;;;;;;;;;;5057409;28;20191;-52
2023/03/10 08:24:31;;;;;;;3.60;1.02;;;;;;;;;;5062915;28;20191;-52
2023/03/10 08:26:56;;;;;;;3.65;1.23;;;;;;;;;;5066630;28;20174;-52
2023/03/10 08:29:23;;;;;;;2.30;1.02;;;;;;;;;;5057381;28;20215;-52
2023/03/10 08:31:49;;;;;;;2.85;0.90;;;;;;;;;;5065946;28;20187;-52
2023/03/10 08:34:15;;;;;;;2.85;1.27;;;;;;;;;;5059943;28;20182;-52
2023/03/10 08:36:42;;;;;;;2.08;0.95;;;;;;;;;;5053041;28;20192;-52
2023/03/10 08:39:08;;;;;;;3.95;1.30;;;;;;;;;;5042599;28;20273;-53
2023/03/10 08:41:44;;;;;;;2.60;1.10;;;;;;;;;;5050796;28;20467;-52
2023/03/10 08:44:14;;;;;;;2.15;1.10;;;;;;;;;;5061145;28;20290;-52
2023/03/10 08:46:40;;;;;;;2.85;0.82;;;;;;;;;;5044571;28;20182;-52
2023/03/10 08:49:06;;;;;;;3.95;1.02;;;;;;;;;;5053349;28;20261;-52
2023/03/10 08:51:32;;;;;;;1.75;0.98;;;;;;;;;;5056641;28;20201;-52
2023/03/10 08:53:58;;;;;;;4.07;0.93;;;;;;;;;;5056497;28;20253;-52
2023/03/10 08:56:24;;;;;;;2.00;0.70;;;;;;;;;;5050217;28;20531;-52
2023/03/10 08:58:55;;;;;;;2.15;0.90;;;;;;;;;;5047656;28;20187;-51
2023/03/10 09:01:21;;;;;;;2.67;0.90;;;;;;;;;;5041658;28;20238;-51
2023/03/10 09:03:47;;;;;;;1.08;0.75;;;;;;;;;;5053552;28;20308;-51
2023/03/10 09:06:13;;;;;;;3.10;0.98;;;;;;;;;;5050545;28;20610;-51
2023/03/10 09:08:40;;;;;;;1.58;0.80;;;;;;;;;;5041881;28;20213;-51
2023/03/10 09:11:06;;;;;;;2.60;0.85;;;;;;;;;;5035877;28;20234;-51
2023/03/10 09:13:32;;;;;;;1.33;0.80;;;;;;;;;;5042151;28;20335;-51
2023/03/10 09:15:58;;;;;;;3.35;1.20;;;;;;;;;;5050825;28;20613;-51
2023/03/10 09:18:24;;;;;;;2.10;1.08;;;;;;;;;;5049915;28;20226;-51
2023/03/10 09:20:50;;;;;;;3.13;1.05;;;;;;;;;;5051800;28;20196;-51
2023/03/10 09:23:16;;;;;;;11.80;1.17;;;;;;;;;;5053856;28;20554;-51
2023/03/10 09:25:42;;;;;;;3.85;1.13;;;;;;;;;;5038956;28;20191;-51
2023/03/10 09:28:09;;;;;;;3.75;1.00;;;;;;;;;;5046566;28;20207;-51
2023/03/10 09:30:36;;;;;;;2.70;1.20;;;;;;;;;;5041653;28;20231;-51
2023/03/10 09:33:06;;;;;;;3.40;1.05;;;;;;;;;;5057688;28;20199;-51
2023/03/10 09:35:32;;;;;;;6.97;1.45;;;;;;;;;;5045529;28;20184;-51
2023/03/10 09:37:58;;;;;;;6.43;0.98;;;;;;;;;;5040055;28;20432;-51
2023/03/10 09:40:24;;;;;;;2.65;1.10;;;;;;;;;;5062398;28;20180;-51
2023/03/10 09:43:01;;;;;;;1.52;0.98;;;;;;;;;;5048018;28;20589;-51
2023/03/10 09:45:31;;;;;;;2.38;0.93;;;;;;;;;;5064270;28;20183;-51
2023/03/10 09:48:06;;;;;;;2.65;1.20;;;;;;;;;;5061970;28;20171;-51
2023/03/10 09:50:34;;;;;;;3.83;1.10;;;;;;;;;;5068706;28;20182;-51
2023/03/10 09:53:14;;;;;;;3.60;1.00;;;;;;;;;;5057967;28;20521;-51
2023/03/10 09:55:43;;;;;;;2.78;1.00;;;;;;;;;;5072380;28;20206;-51
2023/03/10 09:58:12;;;;;;;4.25;1.10;;;;;;;;;;5058309;28;20179;-51
2023/03/10 10:00:40;;;;;;;2.92;0.80;;;;;;;;;;5064380;28;20184;-51
2023/03/10 10:03:11;;;;;;;4.25;1.05;;;;;;;;;;5037716;28;20187;-50
2023/03/10 10:05:41;;;;;;;3.20;0.95;;;;;;;;;;5052558;28;20179;-51
2023/03/10 10:08:14;;;;;;;3.83;1.17;;;;;;;;;;5046843;28;20195;-51
2023/03/10 10:10:41;;;;;;;1.98;0.95;;;;;;;;;;5045138;28;20208;-51
2023/03/10 10:13:12;;;;;;;2.50;0.98;;;;;;;;;;5052572;28;20274;-51
2023/03/10 10:15:39;;;;;;;4.47;1.30;;;;;;;;;;5055454;28;20232;-53
2023/03/10 10:18:20;;;;;;;3.95;1.27;;;;;;;;;;5064596;28;20224;-53
2023/03/10 10:20:49;;;;;;;7.95;1.38;;;;;;;;;;5046471;28;20195;-53
2023/03/10 10:23:20;;;;;;;3.30;0.95;;;;;;;;;;5047642;28;20186;-53
2023/03/10 10:25:46;;;;;;;3.55;1.00;;;;;;;;;;5066250;28;20187;-53
2023/03/10 10:28:35;;;;;;;2.88;1.27;;;;;;;;;;5060190;28;20202;-53
2023/03/10 10:31:16;;;;;;;2.03;0.82;;;;;;;;;;5058245;28;20218;-53
2023/03/10 10:34:00;;;;;;;4.68;0.80;;;;;;;;;;5035617;28;20190;-53
2023/03/10 10:36:27;;;;;;;3.42;0.90;;;;;;;;;;5060878;28;20190;-53
2023/03/10 10:38:54;;;;;;;1.10;0.73;;;;;;;;;;5054279;28;20225;-54
2023/03/10 10:41:30;;;;;;;4.25;1.05;;;;;;;;;;5051185;28;20187;-53
2023/03/10 10:44:05;;;;;;;3.97;0.93;;;;;;;;;;5052259;28;20683;-53
2023/03/10 10:46:31;;;;;;;1.58;0.90;;;;;;;;;;5060088;28;20190;-53
2023/03/10 10:49:02;;;;;;;2.45;0.98;;;;;;;;;;5065692;28;20285;-53
2023/03/10 10:51:29;;;;;;;4.07;1.27;;;;;;;;;;5054100;28;20199;-53
2023/03/10 10:53:59;;;;;;;1.83;1.00;;;;;;;;;;5064319;28;20171;-53
2023/03/10 10:56:27;;;;;;;1.38;0.85;;;;;;;;;;5050164;28;20179;-53
2023/03/10 10:59:12;;;;;;;2.03;0.93;;;;;;;;;;5041955;28;20171;-53
2023/03/10 11:01:54;;;;;;;1.63;0.70;;;;;;;;;;5049708;28;20238;-53
2023/03/10 11:04:20;;;;;;;2.97;1.02;;;;;;;;;;5059376;28;20438;-53
2023/03/10 11:06:47;;;;;;;2.70;1.00;;;;;;;;;;5057658;28;20201;-53
2023/03/10 11:09:17;;;;;;;4.85;1.05;;;;;;;;;;5061869;28;20211;-53
2023/03/10 11:11:55;;;;;;;1.27;0.70;;;;;;;;;;5053707;28;20179;-54
2023/03/10 11:14:24;;;;;;;1.73;0.80;;;;;;;;;;5051580;28;20190;-54
2023/03/10 11:16:56;;;;;;;1.33;0.70;;;;;;;;;;5046985;28;20266;-54
2023/03/10 11:19:31;;;;;;;0.82;0.65;;;;;;;;;;5048064;28;20233;-54
2023/03/10 11:22:02;;;;;;;3.42;0.80;;;;;;;;;;5042110;28;20515;-54
2023/03/10 11:24:37;;;;;;;0.68;0.60;;;;;;;;;;5055364;28;20460;-54
2023/03/10 11:27:17;;;;;;;0.70;0.50;;;;;;;;;;5046212;28;20183;-54
2023/03/10 11:29:55;;;;;;;1.27;0.77;;;;;;;;;;5051757;28;20260;-54
2023/03/10 11:32:37;;;;;;;1.95;0.80;;;;;;;;;;5039662;28;20176;-54
2023/03/10 11:35:13;;;;;;;3.17;0.77;;;;;;;;;;5053064;28;20190;-54
2023/03/10 11:37:43;;;;;;;1.85;0.90;;;;;;;;;;5047285;28;20182;-54
2023/03/10 11:40:17;;;;;;;1.98;0.90;;;;;;;;;;5060330;28;20181;-54
2023/03/10 11:42:52;;;;;;;1.20;0.75;;;;;;;;;;5045651;28;20174;-54
2023/03/10 11:45:24;;;;;;;3.50;0.90;;;;;;;;;;5056017;28;20183;-54
2023/03/10 11:48:01;;;;;;;2.70;0.75;;;;;;;;;;5046924;28;20753;-54
2023/03/10 11:50:46;;;;;;;2.13;0.90;;;;;;;;;;5054057;28;20202;-54
2023/03/10 11:53:19;;;;;;;3.42;0.80;;;;;;;;;;5046816;28;20179;-54
2023/03/10 11:55:46;;;;;;;3.88;0.80;;;;;;;;;;5051405;28;20455;-54
2023/03/10 11:58:21;;;;;;;2.85;0.80;;;;;;;;;;5050327;28;20192;-54
2023/03/10 12:00:47;;;;;;;1.08;0.80;;;;;;;;;;5039203;28;20179;-54
2023/03/10 12:03:24;;;;;;;1.45;0.93;;;;;;;;;;5046123;28;20207;-55
2023/03/10 12:05:52;;;;;;;1.75;0.60;;;;;;;;;;5056624;28;20178;-54
2023/03/10 12:08:20;;;;;;;1.98;0.70;;;;;;;;;;5057659;28;20256;-54
2023/03/10 12:10:48;;;;;;;2.45;0.80;;;;;;;;;;5053623;28;20220;-54
2023/03/10 12:13:18;;;;;;;7.00;1.00;;;;;;;;;;5053868;28;20178;-54
2023/03/10 12:15:44;;;;;;;6.72;1.35;;;;;;;;;;5054539;28;20182;-54
2023/03/10 12:18:10;;;;;;;6.65;0.90;;;;;;;;;;5058463;28;20183;-54
2023/03/10 12:20:36;;;;;;;4.03;1.08;;;;;;;;;;5047791;28;20190;-54
2023/03/10 12:23:08;;;;;;;9.35;1.20;;;;;;;;;;5066985;28;20240;-54
2023/03/10 12:25:37;;;;;;;6.45;1.17;;;;;;;;;;5066299;28;20171;-54
2023/03/10 12:28:23;;;;;;;4.45;1.10;;;;;;;;;;5058432;28;20178;-54
2023/03/10 12:30:55;;;;;;;4.93;1.08;;;;;;;;;;5041688;28;20198;-54
2023/03/10 12:33:36;;;;;;;2.80;1.00;;;;;;;;;;5068171;28;20500;-54
2023/03/10 12:36:11;;;;;;;4.15;1.15;;;;;;;;;;5067070;28;20187;-54
2023/03/10 12:38:44;;;;;;;4.55;1.13;;;;;;;;;;5059287;28;20545;-55
2023/03/10 12:41:11;;;;;;;1.20;0.82;;;;;;;;;;5047051;28;20180;-56
2023/03/10 12:43:37;;;;;;;1.60;1.00;;;;;;;;;;5061338;28;20183;-56
2023/03/10 12:46:04;;;;;;;3.55;1.02;;;;;;;;;;5058694;28;20279;-55
2023/03/10 12:48:32;;;;;;;3.67;0.80;;;;;;;;;;5047836;28;20257;-55
2023/03/10 12:51:01;;;;;;;2.13;0.70;;;;;;;;;;5048490;28;20248;-55
2023/03/10 12:53:30;;;;;;;2.13;0.90;;;;;;;;;;5053196;28;20190;-55
2023/03/10 12:56:11;;;;;;;1.98;0.82;;;;;;;;;;5048968;28;20168;-54
2023/03/10 12:58:39;;;;;;;1.25;0.77;;;;;;;;;;5063982;28;20242;-55
2023/03/10 13:01:06;;;;;;;2.75;0.82;;;;;;;;;;5044658;28;20196;-54
2023/03/10 13:03:34;;;;;;;3.70;0.98;;;;;;;;;;5065364;28;20217;-54
2023/03/10 13:06:01;;;;;;;2.08;0.82;;;;;;;;;;5051474;28;20176;-54
2023/03/10 13:08:36;;;;;;;1.58;0.80;;;;;;;;;;5063523;28;20302;-54
2023/03/10 13:11:03;;;;;;;2.28;0.73;;;;;;;;;;5035820;28;20431;-54
2023/03/10 13:13:36;;;;;;;1.50;0.70;;;;;;;;;;5053264;28;20228;-54
2023/03/10 13:16:04;;;;;;;2.00;0.77;;;;;;;;;;5044932;28;20228;-54
2023/03/10 13:18:30;;;;;;;2.70;0.80;;;;;;;;;;5060616;28;20207;-54
2023/03/10 13:21:00;;;;;;;1.95;0.70;;;;;;;;;;5054034;28;20248;-54
2023/03/10 13:23:34;;;;;;;1.15;0.65;;;;;;;;;;5047838;28;20171;-54
2023/03/10 13:26:01;;;;;;;0.93;0.73;;;;;;;;;;5054427;28;20178;-54
2023/03/10 13:28:29;;;;;;;2.40;0.60;;;;;;;;;;5048344;28;20199;-55
2023/03/10 13:31:13;;;;;;;1.80;0.90;;;;;;;;;;5054039;28;20183;-55
2023/03/10 13:33:39;;;;;;;3.75;0.60;;;;;;;;;;5043400;28;20407;-55
2023/03/10 13:36:20;;;;;;;9.55;1.00;;;;;;;;;;5051240;28;20190;-50
2023/03/10 13:38:46;;;;;;;4.60;1.10;;;;;;;;;;5069475;28;20178;-49
2023/03/10 13:41:12;;;;;;;3.67;0.80;;;;;;;;;;5049384;28;20198;-50
2023/03/10 13:43:42;;;;;;;4.18;0.88;;;;;;;;;;5045934;28;20755;-49
2023/03/10 13:46:18;;;;;;;3.22;0.90;;;;;;;;;;5046006;28;20191;-50
2023/03/10 13:48:46;;;;;;;2.70;0.70;;;;;;;;;;5061637;28;20198;-50
2023/03/10 13:51:17;;;;;;;1.88;0.60;;;;;;;;;;5059523;28;20246;-49
2023/03/10 13:53:43;;;;;;;2.80;0.90;;;;;;;;;;5052277;28;20265;-50
2023/03/10 13:56:15;;;;;;;4.53;0.88;;;;;;;;;;5051019;28;20179;-49
2023/03/10 13:58:42;;;;;;;4.20;0.90;;;;;;;;;;5055966;28;20189;-50
2023/03/10 14:01:11;;;;;;;3.03;0.68;;;;;;;;;;5047872;28;20499;-50
2023/03/10 14:03:37;;;;;;;4.40;0.90;;;;;;;;;;5058277;28;20194;-49
2023/03/10 14:06:12;;;;;;;1.77;0.60;;;;;;;;;;5063311;28;20233;-49
2023/03/10 14:08:38;;;;;;;3.63;0.57;;;;;;;;;;5062658;28;20305;-49
2023/03/10 14:11:22;;;;;;;1.73;0.60;;;;;;;;;;5060549;28;20270;-50
2023/03/10 14:13:48;;;;;;;4.55;0.90;;;;;;;;;;5069359;28;20221;-50
2023/03/10 14:16:14;;;;;;;2.22;0.80;;;;;;;;;;5068382;28;20171;-54
2023/03/10 14:18:42;;;;;;;3.83;0.65;;;;;;;;;;5054681;28;20251;-50
2023/03/10 14:21:38;;;;;;;1.23;0.70;;;;;;;;;;5052040;28;20186;-50
2023/03/10 14:24:06;;;;;;;5.32;0.57;;;;;;;;;;5043056;28;20198;-51
2023/03/10 14:26:32;;;;;;;1.83;0.82;;;;;;;;;;5062627;28;20187;-50
2023/03/10 14:28:59;;;;;;;1.13;0.75;;;;;;;;;;5062897;28;20210;-50
2023/03/10 14:31:26;;;;;;;1.60;0.68;;;;;;;;;;5055659;28;20452;-50
2023/03/10 14:33:52;;;;;;;1.60;0.68;;;;;;;;;;5062758;28;20183;-50
2023/03/10 14:36:17;;;;;;;1.80;0.40;;;;;;;;;;5051108;28;20172;-50
2023/03/10 14:38:44;;;;;;;1.38;0.60;;;;;;;;;;5050760;28;20187;-50
2023/03/10 14:41:11;;;;;;;1.98;0.90;;;;;;;;;;5071345;28;20166;-50
2023/03/10 14:43:38;;;;;;;2.30;0.60;;;;;;;;;;5048910;28;20187;-50
2023/03/10 14:46:04;;;;;;;2.15;0.60;;;;;;;;;;5048833;28;20187;-50
2023/03/10 14:48:33;;;;;;;2.78;1.00;;;;;;;;;;5052957;28;20210;-50